Time;durP1;ratioP1;P1;durP2;ratioP2;P2;SDS_P1;SDS_P2;PMS_P1;PMS_P2;Temp;Humidity;BMP_temperature;BMP_pressure;BME280_temperature;BME280_humidity;BME280_pressure;Samples;Min_cycle;Max_cycle;Signal;HPM_P1;HPM_P2
2021/10/22 00:00:04;;;;;;;2.10;1.77;;;11.00;86.40;;;;;;5090144;28;20549;-90
2021/10/22 00:02:30;;;;;;;3.47;2.10;;;11.00;86.30;;;;;;5075086;28;20198;-90
2021/10/22 00:04:56;;;;;;;2.87;1.83;;;11.10;86.40;;;;;;5058170;28;20201;-91
2021/10/22 00:07:22;;;;;;;2.60;1.90;;;11.10;86.00;;;;;;5075204;28;20190;-90
2021/10/22 00:09:48;;;;;;;1.93;1.77;;;11.10;85.70;;;;;;5093189;28;20209;-91
2021/10/22 00:12:13;;;;;;;1.73;1.63;;;11.10;85.10;;;;;;5092943;28;20194;-90
2021/10/22 00:14:39;;;;;;;1.60;1.50;;;11.00;85.50;;;;;;5074891;28;20217;-90
2021/10/22 00:17:05;;;;;;;1.87;1.60;;;11.00;85.90;;;;;;5074976;28;20193;-90
2021/10/22 00:19:32;;;;;;;3.73;2.10;;;10.90;84.00;;;;;;5093269;28;20297;-90
2021/10/22 00:21:59;;;;;;;3.27;1.80;;;10.80;85.20;;;;;;5094752;28;20187;-90
2021/10/22 00:24:25;;;;;;;2.53;1.57;;;10.70;85.70;;;;;;5095593;28;20208;-91
2021/10/22 00:26:50;;;;;;;1.80;1.70;;;10.80;86.00;;;;;;5076367;28;20719;-90
2021/10/22 00:29:16;;;;;;;3.30;1.70;;;10.80;85.50;;;;;;5093855;28;20262;-90
2021/10/22 00:31:42;;;;;;;1.70;1.60;;;10.80;85.20;;;;;;5115077;28;20214;-91
2021/10/22 00:34:07;;;;;;;1.60;1.47;;;10.80;85.40;;;;;;5082642;28;20205;-90
2021/10/22 00:36:35;;;;;;;1.70;1.50;;;10.70;85.40;;;;;;5094139;28;20193;-90
2021/10/22 00:39:00;;;;;;;1.93;1.60;;;10.70;85.40;;;;;;5073612;28;20214;-91
2021/10/22 00:41:27;;;;;;;1.67;1.57;;;10.80;85.50;;;;;;5099981;28;20189;-90
2021/10/22 00:43:53;;;;;;;1.97;1.50;;;10.70;85.30;;;;;;5113626;28;20185;-90
2021/10/22 00:46:18;;;;;;;2.33;1.67;;;10.70;85.20;;;;;;5092825;28;20251;-90
2021/10/22 00:48:44;;;;;;;1.70;1.60;;;10.70;85.20;;;;;;5073721;28;20189;-90
2021/10/22 00:51:12;;;;;;;1.90;1.80;;;10.60;84.80;;;;;;5073147;28;20396;-90
2021/10/22 00:53:38;;;;;;;2.07;1.70;;;10.70;84.70;;;;;;5091909;28;20259;-90
2021/10/22 00:56:08;;;;;;;1.70;1.60;;;10.50;84.60;;;;;;5091990;28;20335;-90
2021/10/22 00:58:36;;;;;;;1.60;1.50;;;10.30;85.10;;;;;;5090130;28;20176;-90
2021/10/22 01:01:01;;;;;;;1.60;1.50;;;10.30;85.60;;;;;;5091747;28;20197;-90
2021/10/22 01:03:27;;;;;;;1.47;1.40;;;10.40;85.90;;;;;;5091980;28;20203;-90
2021/10/22 01:05:53;;;;;;;1.53;1.40;;;10.30;84.70;;;;;;5073405;28;20223;-90
2021/10/22 01:08:19;;;;;;;1.53;1.43;;;10.30;84.50;;;;;;5073859;28;20185;-90
2021/10/22 01:10:45;;;;;;;2.60;1.80;;;10.30;83.40;;;;;;5091222;28;20620;-90
2021/10/22 01:13:10;;;;;;;1.50;1.40;;;10.30;83.60;;;;;;5073472;28;20183;-90
2021/10/22 01:15:36;;;;;;;1.30;1.30;;;10.20;84.70;;;;;;5070793;28;20207;-90
2021/10/22 01:18:02;;;;;;;1.80;1.40;;;10.10;84.50;;;;;;5057378;28;20189;-90
2021/10/22 01:20:29;;;;;;;2.30;1.43;;;10.10;84.70;;;;;;5090482;28;20362;-90
2021/10/22 01:22:55;;;;;;;1.70;1.60;;;10.10;84.90;;;;;;5091573;28;20207;-90
2021/10/22 01:25:27;;;;;;;2.00;1.80;;;10.10;84.50;;;;;;5091424;28;20215;-90
2021/10/22 01:27:54;;;;;;;3.20;1.50;;;10.10;84.70;;;;;;5054327;28;20611;-90
2021/10/22 01:30:22;;;;;;;1.57;1.47;;;10.00;84.70;;;;;;5087712;28;20300;-90
2021/10/22 01:32:53;;;;;;;1.53;1.40;;;10.00;84.60;;;;;;5091135;28;20647;-90
2021/10/22 01:35:19;;;;;;;1.60;1.50;;;10.00;84.60;;;;;;5090586;28;20268;-90
2021/10/22 01:37:45;;;;;;;2.30;1.73;;;10.10;85.10;;;;;;5072981;28;20189;-90
2021/10/22 01:40:11;;;;;;;1.70;1.50;;;10.00;84.80;;;;;;5091297;28;20237;-90
2021/10/22 01:42:37;;;;;;;1.57;1.47;;;10.00;84.00;;;;;;5072407;28;20223;-90
2021/10/22 01:45:05;;;;;;;1.67;1.57;;;10.00;83.90;;;;;;5090775;28;20601;-91
2021/10/22 01:47:30;;;;;;;1.70;1.53;;;9.90;83.10;;;;;;5090906;28;20574;-90
2021/10/22 01:49:56;;;;;;;1.90;1.80;;;9.90;84.20;;;;;;5090782;28;20290;-90
2021/10/22 01:52:22;;;;;;;1.73;1.63;;;9.90;84.10;;;;;;5090674;28;20187;-90
2021/10/22 01:54:48;;;;;;;1.63;1.53;;;9.90;84.80;;;;;;5090673;28;20573;-90
2021/10/22 01:57:13;;;;;;;1.50;1.40;;;9.90;84.80;;;;;;5090663;28;20211;-90
2021/10/22 01:59:39;;;;;;;1.50;1.40;;;9.90;84.70;;;;;;5090545;28;20209;-90
2021/10/22 02:02:05;;;;;;;1.60;1.50;;;9.90;84.60;;;;;;5090922;28;20185;-90
2021/10/22 02:04:32;;;;;;;1.70;1.60;;;9.90;85.00;;;;;;5072542;28;20245;-90
2021/10/22 02:06:59;;;;;;;1.60;1.50;;;9.90;85.10;;;;;;5090885;28;20203;-90
2021/10/22 02:09:24;;;;;;;1.60;1.50;;;9.80;84.90;;;;;;5090651;28;20634;-90
2021/10/22 02:11:50;;;;;;;1.83;1.73;;;9.80;84.70;;;;;;5072532;28;20200;-90
2021/10/22 02:14:17;;;;;;;1.80;1.70;;;9.80;84.90;;;;;;5056066;28;20226;-90
2021/10/22 02:16:43;;;;;;;1.80;1.70;;;9.70;85.40;;;;;;5090840;28;20207;-90
2021/10/22 02:19:09;;;;;;;1.70;1.60;;;9.70;85.00;;;;;;5091090;28;20208;-90
2021/10/22 02:21:36;;;;;;;2.10;1.90;;;9.60;85.20;;;;;;5047077;28;20196;-90
2021/10/22 02:24:02;;;;;;;1.50;1.40;;;9.70;85.10;;;;;;5074129;28;20207;-90
2021/10/22 02:26:27;;;;;;;1.83;1.73;;;9.60;83.70;;;;;;5091747;28;20182;-90
2021/10/22 02:28:53;;;;;;;2.10;1.60;;;9.60;83.80;;;;;;5072889;28;20188;-90
2021/10/22 02:31:19;;;;;;;1.70;1.60;;;9.50;83.20;;;;;;5075472;28;20270;-90
2021/10/22 02:33:45;;;;;;;1.90;1.73;;;9.40;83.90;;;;;;5076448;28;20212;-89
2021/10/22 02:36:11;;;;;;;1.73;1.50;;;9.40;84.30;;;;;;5094541;28;20213;-89
2021/10/22 02:38:37;;;;;;;2.07;1.53;;;9.30;83.50;;;;;;5076711;28;20171;-89
2021/10/22 02:41:03;;;;;;;2.43;1.63;;;9.30;84.70;;;;;;5075836;28;20619;-89
2021/10/22 02:43:29;;;;;;;2.10;1.90;;;9.30;84.50;;;;;;5094670;28;20241;-89
2021/10/22 02:45:54;;;;;;;1.70;1.60;;;9.30;84.90;;;;;;5076002;28;20543;-89
2021/10/22 02:48:20;;;;;;;2.07;1.90;;;9.30;85.00;;;;;;5094825;28;20178;-89
2021/10/22 02:50:46;;;;;;;1.70;1.60;;;9.40;84.90;;;;;;5076340;28;20654;-89
2021/10/22 02:53:12;;;;;;;1.70;1.60;;;9.30;83.90;;;;;;5059457;28;20713;-91
2021/10/22 02:55:37;;;;;;;1.47;1.37;;;9.30;84.30;;;;;;5093901;28;20283;-89
2021/10/22 02:58:03;;;;;;;1.80;1.70;;;9.20;83.40;;;;;;5093836;28;20194;-89
2021/10/22 03:00:29;;;;;;;1.43;1.40;;;9.20;84.40;;;;;;5106231;28;20210;-89
2021/10/22 03:02:54;;;;;;;1.37;1.37;;;9.20;84.20;;;;;;5098341;28;20195;-89
2021/10/22 03:05:20;;;;;;;3.20;1.50;;;9.20;84.00;;;;;;5091080;28;20246;-89
2021/10/22 03:07:46;;;;;;;2.33;1.40;;;9.20;83.80;;;;;;5077926;28;20201;-89
2021/10/22 03:10:12;;;;;;;4.23;1.80;;;9.20;83.90;;;;;;5085484;28;20712;-89
2021/10/22 03:12:38;;;;;;;4.17;1.67;;;9.10;83.00;;;;;;5075644;28;20187;-89
2021/10/22 03:15:05;;;;;;;1.67;1.57;;;9.00;84.10;;;;;;5076106;28;20298;-89
2021/10/22 03:17:31;;;;;;;1.60;1.50;;;9.10;84.50;;;;;;5094753;28;20182;-89
2021/10/22 03:19:56;;;;;;;1.80;1.70;;;9.10;84.40;;;;;;5105831;28;20281;-89
2021/10/22 03:22:22;;;;;;;2.20;2.00;;;9.10;84.20;;;;;;5101226;28;20179;-89
2021/10/22 03:24:48;;;;;;;1.50;1.40;;;9.10;84.00;;;;;;5109851;28;20207;-91
2021/10/22 03:27:15;;;;;;;1.60;1.50;;;9.00;84.20;;;;;;5110180;28;20176;-89
2021/10/22 03:29:42;;;;;;;1.60;1.50;;;9.00;84.30;;;;;;5116057;27;20254;-92
2021/10/22 03:32:08;;;;;;;1.60;1.50;;;9.00;83.70;;;;;;5101207;28;20175;-89
2021/10/22 03:34:34;;;;;;;1.67;1.57;;;9.00;83.70;;;;;;5102264;28;20222;-89
2021/10/22 03:37:00;;;;;;;1.70;1.60;;;9.00;84.20;;;;;;5054935;28;20187;-89
2021/10/22 03:39:26;;;;;;;1.50;1.40;;;9.00;83.90;;;;;;5092995;28;20195;-89
2021/10/22 03:41:52;;;;;;;2.37;2.13;;;8.90;84.20;;;;;;5074162;28;20183;-89
2021/10/22 03:44:18;;;;;;;1.90;1.80;;;8.90;84.30;;;;;;5093517;28;20180;-89
2021/10/22 03:46:44;;;;;;;1.40;1.30;;;8.90;83.30;;;;;;5074878;28;20244;-89
2021/10/22 03:49:10;;;;;;;2.23;2.03;;;8.90;83.40;;;;;;5093518;28;20335;-88
2021/10/22 03:51:35;;;;;;;1.83;1.73;;;8.80;83.60;;;;;;5092747;28;20195;-89
2021/10/22 03:54:01;;;;;;;2.00;1.90;;;8.80;84.00;;;;;;5057748;28;20237;-89
2021/10/22 03:56:27;;;;;;;1.90;1.70;;;8.80;84.70;;;;;;5074678;28;20175;-89
2021/10/22 03:58:52;;;;;;;3.43;2.53;;;8.80;84.00;;;;;;5074311;28;20187;-88
2021/10/22 04:01:18;;;;;;;3.13;2.00;;;8.70;83.40;;;;;;5074643;28;20270;-89
2021/10/22 04:03:44;;;;;;;2.10;1.67;;;8.70;85.10;;;;;;5092750;28;20187;-89
2021/10/22 04:06:10;;;;;;;3.97;2.10;;;8.70;85.20;;;;;;5074452;28;20546;-89
2021/10/22 04:08:36;;;;;;;2.70;2.30;;;8.80;85.30;;;;;;5074828;28;20195;-89
2021/10/22 04:11:01;;;;;;;3.30;2.50;;;8.80;83.40;;;;;;5074838;28;20235;-89
2021/10/22 04:13:27;;;;;;;1.90;1.80;;;8.60;83.70;;;;;;5092020;28;20187;-89
2021/10/22 04:15:53;;;;;;;2.47;2.00;;;8.70;86.00;;;;;;5092228;28;20703;-89
2021/10/22 04:18:19;;;;;;;2.63;2.20;;;8.60;85.50;;;;;;5092586;28;20270;-89
2021/10/22 04:20:45;;;;;;;4.07;2.37;;;8.60;85.70;;;;;;5074156;28;20305;-89
2021/10/22 04:23:11;;;;;;;3.53;2.37;;;8.50;85.00;;;;;;5092286;28;20277;-89
2021/10/22 04:25:38;;;;;;;2.67;2.47;;;8.50;85.10;;;;;;5092170;28;20183;-89
2021/10/22 04:28:06;;;;;;;2.87;2.60;;;8.60;86.20;;;;;;5091798;28;20194;-89
2021/10/22 04:30:32;;;;;;;2.60;2.30;;;8.60;86.10;;;;;;5057447;28;20207;-89
2021/10/22 04:32:58;;;;;;;2.50;2.30;;;8.60;84.70;;;;;;5092127;28;20178;-89
2021/10/22 04:35:24;;;;;;;2.50;2.30;;;8.60;84.70;;;;;;5092156;28;20842;-89
2021/10/22 04:40:32;;;;;;;2.90;2.60;;;8.50;84.40;;;;;;5093058;28;20284;-87
2021/10/22 04:42:59;;;;;;;3.87;2.60;;;8.50;85.20;;;;;;5091416;28;20245;-88
2021/10/22 04:45:25;;;;;;;3.73;2.50;;;8.50;85.50;;;;;;5075476;28;20191;-88
2021/10/22 04:47:51;;;;;;;3.63;2.27;;;8.50;85.60;;;;;;5075845;28;20225;-88
2021/10/22 04:50:17;;;;;;;2.60;2.40;;;8.50;85.90;;;;;;5094072;28;20577;-88
2021/10/22 04:52:43;;;;;;;3.20;2.83;;;8.50;85.80;;;;;;5093697;28;20195;-88
2021/10/22 04:55:10;;;;;;;4.30;3.27;;;8.50;85.20;;;;;;5093499;28;20230;-88
2021/10/22 04:57:37;;;;;;;3.17;2.60;;;8.40;85.00;;;;;;5093993;28;20175;-88
2021/10/22 05:00:06;;;;;;;3.60;2.73;;;8.40;86.40;;;;;;5079271;28;20191;-89
2021/10/22 05:02:32;;;;;;;6.30;3.80;;;8.30;86.30;;;;;;5094823;28;20210;-89
2021/10/22 05:04:58;;;;;;;4.73;4.10;;;8.20;86.20;;;;;;5074915;28;20206;-88
2021/10/22 05:07:23;;;;;;;9.20;4.33;;;8.00;87.30;;;;;;5076139;28;20717;-88
2021/10/22 05:09:49;;;;;;;7.83;5.03;;;7.60;89.40;;;;;;5076171;28;20298;-89
2021/10/22 05:12:15;;;;;;;6.57;4.73;;;7.40;91.40;;;;;;5059382;28;20875;-88
2021/10/22 05:14:40;;;;;;;8.57;4.33;;;7.30;92.50;;;;;;5075735;28;20194;-89
2021/10/22 05:17:06;;;;;;;6.60;4.23;;;7.20;92.90;;;;;;5059310;28;20190;-88
2021/10/22 05:19:32;;;;;;;4.77;4.27;;;7.20;93.10;;;;;;5092598;28;20222;-88
2021/10/22 05:21:58;;;;;;;5.87;4.23;;;7.10;93.30;;;;;;5077457;28;20182;-88
2021/10/22 05:24:24;;;;;;;5.00;4.53;;;7.00;93.60;;;;;;5067243;28;20210;-88
2021/10/22 05:26:50;;;;;;;5.53;4.67;;;7.00;95.10;;;;;;5064613;28;20763;-89
2021/10/22 05:29:16;;;;;;;5.57;4.50;;;7.10;94.10;;;;;;5075800;28;20203;-89
2021/10/22 05:31:42;;;;;;;6.40;5.13;;;7.20;93.60;;;;;;5059309;28;20190;-89
2021/10/22 05:34:08;;;;;;;7.83;4.90;;;7.00;93.90;;;;;;5059725;28;20638;-89
2021/10/22 05:36:33;;;;;;;6.33;4.53;;;7.00;95.00;;;;;;5093035;28;20171;-89
2021/10/22 05:38:59;;;;;;;15.33;14.17;;;6.90;94.50;;;;;;5075729;28;20624;-89
2021/10/22 05:41:25;;;;;;;4.83;4.33;;;6.90;94.90;;;;;;5074761;28;20190;-89
2021/10/22 05:43:50;;;;;;;5.00;4.50;;;7.00;94.60;;;;;;5076270;28;20236;-89
2021/10/22 05:46:18;;;;;;;8.13;4.90;;;7.20;91.90;;;;;;5071213;28;20285;-89
2021/10/22 05:48:45;;;;;;;7.57;4.77;;;7.10;91.60;;;;;;5074912;28;20232;-88
2021/10/22 05:51:11;;;;;;;5.10;4.53;;;7.10;92.40;;;;;;5093371;28;20461;-89
2021/10/22 05:53:37;;;;;;;5.93;4.57;;;7.10;93.70;;;;;;5076031;28;20592;-89
2021/10/22 05:56:03;;;;;;;6.40;5.00;;;7.10;93.10;;;;;;5093366;28;20267;-88
2021/10/22 05:58:29;;;;;;;7.47;5.50;;;7.10;93.20;;;;;;5073572;28;20194;-88
2021/10/22 06:00:55;;;;;;;9.57;7.03;;;7.10;93.40;;;;;;5065642;28;20214;-89
2021/10/22 06:03:21;;;;;;;8.83;7.47;;;7.10;93.80;;;;;;5089982;28;20175;-89
2021/10/22 06:05:52;;;;;;;10.53;7.93;;;7.00;95.50;;;;;;5079021;28;20194;-88
2021/10/22 06:08:22;;;;;;;9.40;7.63;;;6.80;96.90;;;;;;5065153;28;20263;-88
2021/10/22 06:10:48;;;;;;;10.90;9.77;;;6.70;97.40;;;;;;5098730;28;20210;-88
2021/10/22 06:13:15;;;;;;;7.33;6.57;;;6.90;97.10;;;;;;5085711;28;20541;-89
2021/10/22 06:15:41;;;;;;;8.43;6.97;;;6.90;96.80;;;;;;5094092;28;20203;-89
2021/10/22 06:18:07;;;;;;;9.77;7.73;;;7.00;96.10;;;;;;5106783;28;20300;-88
2021/10/22 06:20:50;;;;;;;10.57;8.07;;;6.90;95.90;;;;;;5115050;28;20368;-89
2021/10/22 06:26:01;;;;;;;10.30;9.20;;;6.60;98.20;;;;;;5091791;28;20213;-90
2021/10/22 06:28:27;;;;;;;12.87;9.17;;;6.50;99.30;;;;;;5093816;28;20569;-90
2021/10/22 06:30:52;;;;;;;12.87;9.70;;;6.40;99.90;;;;;;5093034;28;20211;-90
2021/10/22 06:33:18;;;;;;;12.27;10.00;;;6.50;99.90;;;;;;5092968;28;20383;-90
2021/10/22 06:35:45;;;;;;;12.43;9.57;;;6.40;99.90;;;;;;5074807;28;20214;-89
2021/10/22 06:38:11;;;;;;;12.63;8.70;;;6.30;99.90;;;;;;5075193;28;20183;-90
2021/10/22 06:40:37;;;;;;;11.60;8.97;;;6.40;99.90;;;;;;5090436;28;20214;-89
2021/10/22 06:43:03;;;;;;;12.20;9.20;;;6.30;99.90;;;;;;5056758;28;20199;-89
2021/10/22 06:45:29;;;;;;;12.00;8.73;;;6.30;99.90;;;;;;5075424;28;20623;-89
2021/10/22 06:47:55;;;;;;;17.93;9.90;;;6.40;99.90;;;;;;5075485;28;20413;-89
2021/10/22 06:50:21;;;;;;;14.27;10.03;;;6.30;99.90;;;;;;5073576;28;20264;-89
2021/10/22 06:52:46;;;;;;;16.50;10.10;;;6.40;99.90;;;;;;5072577;28;20187;-89
2021/10/22 06:55:12;;;;;;;14.30;10.50;;;6.40;99.90;;;;;;5095797;28;20250;-89
2021/10/22 06:57:41;;;;;;;14.90;9.50;;;6.30;99.90;;;;;;5075169;28;20197;-89
2021/10/22 07:00:11;;;;;;;14.30;9.33;;;6.30;99.90;;;;;;5087295;28;20211;-89
2021/10/22 07:02:47;;;;;;;12.57;9.77;;;6.40;99.90;;;;;;5074147;28;20569;-90
2021/10/22 07:05:24;;;;;;;15.97;9.57;;;6.40;99.90;;;;;;5091065;28;20219;-89
2021/10/22 07:07:50;;;;;;;16.77;9.53;;;6.50;99.90;;;;;;5073509;28;20646;-89
2021/10/22 07:10:16;;;;;;;11.80;10.60;;;6.50;99.90;;;;;;5074541;28;20261;-89
2021/10/22 07:12:42;;;;;;;16.57;9.50;;;6.60;99.90;;;;;;5091780;28;20197;-90
2021/10/22 07:15:08;;;;;;;11.87;8.63;;;6.60;99.50;;;;;;5073262;28;20203;-89
2021/10/22 07:17:33;;;;;;;16.47;9.60;;;6.50;99.80;;;;;;5094247;28;20183;-89
2021/10/22 07:19:59;;;;;;;13.30;10.63;;;6.50;99.90;;;;;;5065373;28;20202;-88
2021/10/22 07:22:31;;;;;;;12.87;10.17;;;6.40;99.90;;;;;;5079262;28;20187;-89
2021/10/22 07:24:57;;;;;;;11.43;8.37;;;6.60;99.90;;;;;;5078531;28;20297;-90
2021/10/22 07:27:22;;;;;;;13.87;9.13;;;6.70;99.60;;;;;;5079619;28;20214;-90
2021/10/22 07:29:48;;;;;;;12.50;8.53;;;6.80;99.20;;;;;;5075954;28;20237;-89
2021/10/22 07:32:14;;;;;;;14.77;8.90;;;6.80;98.60;;;;;;5059559;28;20244;-90
2021/10/22 07:34:40;;;;;;;16.83;9.33;;;6.90;98.70;;;;;;5093364;28;20222;-90
2021/10/22 07:37:06;;;;;;;14.97;9.27;;;6.90;98.20;;;;;;5075792;28;20634;-90
2021/10/22 07:39:32;;;;;;;16.80;10.53;;;6.90;98.50;;;;;;5075631;28;20199;-88
2021/10/22 07:41:58;;;;;;;13.47;10.30;;;6.90;97.90;;;;;;5075426;28;20209;-89
2021/10/22 07:44:24;;;;;;;12.13;10.00;;;6.90;98.50;;;;;;5094017;28;20968;-89
2021/10/22 07:46:51;;;;;;;10.83;9.27;;;6.90;98.10;;;;;;5077291;28;20232;-89
2021/10/22 07:49:16;;;;;;;14.03;10.87;;;6.90;98.40;;;;;;5095032;28;20198;-89
2021/10/22 07:51:42;;;;;;;16.00;9.60;;;6.80;99.80;;;;;;5075892;28;20240;-89
2021/10/22 07:54:09;;;;;;;13.13;9.80;;;6.80;99.10;;;;;;5096287;28;20214;-88
2021/10/22 07:56:35;;;;;;;14.27;9.30;;;6.80;98.50;;;;;;5096910;28;20175;-89
2021/10/22 07:59:04;;;;;;;13.10;9.73;;;6.60;99.10;;;;;;5075511;28;20277;-89
2021/10/22 08:01:30;;;;;;;11.73;9.67;;;6.60;99.90;;;;;;5093834;28;20186;-89
2021/10/22 08:03:56;;;;;;;16.10;10.27;;;6.60;99.90;;;;;;5093523;28;20187;-89
2021/10/22 08:06:21;;;;;;;16.07;11.00;;;6.70;99.90;;;;;;5094661;28;20187;-89
2021/10/22 08:08:47;;;;;;;13.60;10.73;;;6.70;99.90;;;;;;5093362;28;20216;-89
2021/10/22 08:11:15;;;;;;;13.00;10.13;;;6.80;99.90;;;;;;5076266;28;20182;-89
2021/10/22 08:13:41;;;;;;;17.03;10.10;;;6.70;99.90;;;;;;5075621;28;20685;-89
2021/10/22 08:16:07;;;;;;;12.23;9.23;;;6.60;99.20;;;;;;5093972;28;20715;-89
2021/10/22 08:18:33;;;;;;;14.67;9.40;;;6.70;99.20;;;;;;5093660;28;20187;-89
2021/10/22 08:21:03;;;;;;;11.73;8.47;;;6.70;98.10;;;;;;5078005;28;20236;-89
2021/10/22 08:23:29;;;;;;;11.87;9.00;;;6.60;97.50;;;;;;5082341;28;20199;-89
2021/10/22 08:25:55;;;;;;;18.03;9.47;;;6.40;97.80;;;;;;5076518;28;20198;-89
2021/10/22 08:28:21;;;;;;;12.43;9.23;;;6.40;98.50;;;;;;5076006;28;20183;-89
2021/10/22 08:30:55;;;;;;;12.80;9.40;;;6.30;99.10;;;;;;5094646;28;20622;-89
2021/10/22 08:33:25;;;;;;;16.87;10.77;;;6.20;99.90;;;;;;5083716;28;20183;-89
2021/10/22 08:35:52;;;;;;;15.20;11.73;;;6.20;99.90;;;;;;5103343;28;20229;-89
2021/10/22 08:38:18;;;;;;;16.23;10.77;;;6.20;99.90;;;;;;5102689;28;20183;-88
2021/10/22 08:40:44;;;;;;;13.80;11.17;;;6.40;99.90;;;;;;5082074;28;20207;-89
2021/10/22 08:43:09;;;;;;;13.37;10.60;;;6.30;99.90;;;;;;5096756;28;20194;-89
2021/10/22 08:45:36;;;;;;;16.43;11.10;;;6.30;99.90;;;;;;5097430;28;20350;-89
2021/10/22 08:48:04;;;;;;;14.80;11.33;;;6.40;99.90;;;;;;5103046;28;20282;-89
2021/10/22 08:50:30;;;;;;;16.83;11.30;;;6.40;99.90;;;;;;5104659;28;20238;-89
2021/10/22 08:52:56;;;;;;;17.40;11.40;;;6.30;99.90;;;;;;5103255;28;20247;-89
2021/10/22 08:55:22;;;;;;;14.27;11.67;;;6.30;99.90;;;;;;5086640;28;20234;-89
2021/10/22 08:57:49;;;;;;;13.77;10.20;;;6.30;99.90;;;;;;5110325;28;20193;-87
2021/10/22 09:00:17;;;;;;;12.43;10.53;;;6.50;99.20;;;;;;5116907;28;20250;-88
2021/10/22 09:02:48;;;;;;;15.90;11.73;;;6.60;99.70;;;;;;5101675;28;20191;-89
2021/10/22 09:05:26;;;;;;;16.63;11.03;;;6.70;99.40;;;;;;5099858;28;20190;-87
2021/10/22 09:07:55;;;;;;;20.20;11.97;;;6.60;98.50;;;;;;5098102;28;20175;-87
2021/10/22 09:10:24;;;;;;;18.07;12.33;;;6.70;99.40;;;;;;5117277;28;20218;-88
2021/10/22 09:13:01;;;;;;;16.83;11.63;;;6.70;99.80;;;;;;5082610;28;20254;-89
2021/10/22 09:15:32;;;;;;;20.20;13.13;;;6.80;99.90;;;;;;5081826;28;20199;-89
2021/10/22 09:18:00;;;;;;;16.33;12.23;;;6.80;99.90;;;;;;5065606;28;20225;-89
2021/10/22 09:20:28;;;;;;;17.37;11.67;;;6.80;99.40;;;;;;5099081;28;20541;-89
2021/10/22 09:22:56;;;;;;;15.20;13.13;;;6.90;98.70;;;;;;5084514;28;20179;-89
2021/10/22 09:25:25;;;;;;;18.33;12.40;;;7.00;98.40;;;;;;5082422;28;20187;-89
2021/10/22 09:27:56;;;;;;;18.07;11.83;;;7.10;99.40;;;;;;5065313;28;20202;-89
2021/10/22 09:30:41;;;;;;;14.50;11.33;;;7.30;98.90;;;;;;5100163;28;20198;-89
2021/10/22 09:33:15;;;;;;;16.33;11.53;;;7.40;98.00;;;;;;5100009;28;20155;-89
2021/10/22 09:35:45;;;;;;;13.53;10.03;;;7.50;97.80;;;;;;5080984;28;20289;-89
2021/10/22 09:38:24;;;;;;;11.97;9.53;;;7.50;95.40;;;;;;5100042;28;20246;-89
2021/10/22 09:40:53;;;;;;;17.27;10.53;;;7.60;96.80;;;;;;5099191;28;20225;-89
2021/10/22 09:43:41;;;;;;;14.23;9.07;;;7.70;96.40;;;;;;5098992;28;20171;-89
2021/10/22 09:46:21;;;;;;;13.77;9.13;;;7.70;95.50;;;;;;5099399;28;20235;-89
2021/10/22 09:48:50;;;;;;;15.47;10.00;;;7.70;95.80;;;;;;5081354;28;20171;-89
2021/10/22 09:51:28;;;;;;;13.00;9.40;;;7.70;97.20;;;;;;5099370;28;20181;-89
2021/10/22 09:53:57;;;;;;;15.33;8.50;;;7.80;96.40;;;;;;5099481;28;20313;-89
2021/10/22 09:56:27;;;;;;;14.20;8.43;;;8.20;95.70;;;;;;5099219;28;20270;-89
2021/10/22 09:59:03;;;;;;;16.20;8.67;;;8.20;94.00;;;;;;5101155;28;20227;-89
2021/10/22 10:01:44;;;;;;;12.67;8.53;;;8.30;93.80;;;;;;5087384;28;20186;-90
2021/10/22 10:04:12;;;;;;;10.77;7.43;;;8.50;91.80;;;;;;5082341;28;20183;-90
2021/10/22 10:06:39;;;;;;;15.23;8.93;;;9.00;91.80;;;;;;5062980;28;20190;-89
2021/10/22 10:09:08;;;;;;;13.60;8.40;;;9.40;90.80;;;;;;5074082;28;20701;-89
2021/10/22 10:11:35;;;;;;;12.27;7.80;;;9.40;89.10;;;;;;5091967;28;20559;-88
2021/10/22 10:14:02;;;;;;;13.17;8.43;;;9.40;88.10;;;;;;5074963;28;20276;-88
2021/10/22 10:16:30;;;;;;;16.57;7.87;;;9.40;88.10;;;;;;5093408;28;20633;-89
2021/10/22 10:19:10;;;;;;;12.77;8.00;;;9.50;89.20;;;;;;5098501;28;20224;-88
2021/10/22 10:21:48;;;;;;;11.73;7.83;;;9.70;87.80;;;;;;5095347;28;20186;-89
2021/10/22 10:24:18;;;;;;;11.10;7.47;;;10.20;87.30;;;;;;5097477;28;20550;-89
2021/10/22 10:26:44;;;;;;;13.63;6.47;;;10.50;83.10;;;;;;5098751;28;20221;-89
2021/10/22 10:29:28;;;;;;;11.63;6.83;;;10.30;84.00;;;;;;5080242;28;20211;-89
2021/10/22 10:32:10;;;;;;;12.50;8.03;;;10.20;86.60;;;;;;5080095;28;20187;-89
2021/10/22 10:34:44;;;;;;;10.17;6.00;;;10.20;85.50;;;;;;5061353;28;20275;-89
2021/10/22 10:37:38;;;;;;;13.97;5.63;;;10.10;84.70;;;;;;5089366;28;20178;-89
2021/10/22 10:40:08;;;;;;;11.23;5.20;;;10.00;83.00;;;;;;5059469;28;20241;-89
2021/10/22 10:42:39;;;;;;;9.40;4.83;;;10.30;81.90;;;;;;5076948;28;20187;-89
2021/10/22 10:45:38;;;;;;;6.97;4.10;;;10.50;80.50;;;;;;5096891;28;20666;-89
2021/10/22 10:48:10;;;;;;;13.20;4.60;;;10.90;80.50;;;;;;5051097;28;20658;-89
2021/10/22 10:50:50;;;;;;;11.87;4.23;;;10.90;76.40;;;;;;5081094;28;20211;-92
2021/10/22 10:53:43;;;;;;;7.03;3.97;;;11.00;77.50;;;;;;5083004;28;20194;-90
2021/10/22 10:56:33;;;;;;;12.93;4.77;;;11.00;77.00;;;;;;5110448;28;20171;-89
2021/10/22 10:58:58;;;;;;;9.67;4.03;;;11.40;75.60;;;;;;5065523;28;20211;-89
2021/10/22 11:01:38;;;;;;;6.00;3.57;;;11.10;72.70;;;;;;5057631;28;20214;-90
2021/10/22 11:04:05;;;;;;;9.13;3.73;;;11.30;73.60;;;;;;5076451;28;20183;-90
2021/10/22 11:06:44;;;;;;;6.37;3.73;;;11.50;71.30;;;;;;5094016;28;20244;-90
2021/10/22 11:09:15;;;;;;;9.37;3.97;;;11.80;70.10;;;;;;5075278;28;20205;-90
2021/10/22 11:11:41;;;;;;;9.90;4.47;;;12.00;68.20;;;;;;5079892;28;20190;-90
2021/10/22 11:14:08;;;;;;;7.50;3.90;;;11.80;67.70;;;;;;5085757;28;20226;-88
2021/10/22 11:16:55;;;;;;;10.77;4.03;;;11.90;67.20;;;;;;5086477;28;20175;-91
2021/10/22 11:19:23;;;;;;;6.90;3.43;;;12.00;67.00;;;;;;5065129;28;20200;-90
2021/10/22 11:21:53;;;;;;;9.47;3.57;;;12.20;68.40;;;;;;5096795;28;20195;-90
2021/10/22 11:24:24;;;;;;;7.47;3.30;;;12.50;63.70;;;;;;5078269;28;20199;-90
2021/10/22 11:27:05;;;;;;;7.97;3.30;;;12.70;62.10;;;;;;5076456;28;20554;-90
2021/10/22 11:29:43;;;;;;;9.60;3.87;;;12.50;63.20;;;;;;5058853;28;20207;-90
2021/10/22 11:32:11;;;;;;;8.57;3.70;;;12.30;63.40;;;;;;5076065;28;20183;-90
2021/10/22 11:34:39;;;;;;;6.93;3.93;;;12.60;60.90;;;;;;5076315;28;20204;-90
2021/10/22 11:37:16;;;;;;;8.60;3.53;;;12.70;62.80;;;;;;5076445;28;20172;-90
2021/10/22 11:39:49;;;;;;;5.60;3.30;;;12.80;60.80;;;;;;5059251;28;20207;-91
2021/10/22 11:42:16;;;;;;;8.37;3.17;;;13.00;59.30;;;;;;5094624;28;20259;-90
2021/10/22 11:44:45;;;;;;;7.30;2.80;;;13.10;56.60;;;;;;5063093;28;20574;-92
2021/10/22 11:47:12;;;;;;;8.27;3.43;;;13.20;56.80;;;;;;5100780;28;20264;-91
2021/10/22 11:49:39;;;;;;;11.33;4.03;;;13.40;57.40;;;;;;5071515;28;20194;-91
2021/10/22 11:52:08;;;;;;;8.83;3.60;;;13.60;56.00;;;;;;5097338;28;20487;-90
2021/10/22 11:54:50;;;;;;;8.23;3.13;;;13.50;55.90;;;;;;5091399;28;20212;-93
2021/10/22 11:57:23;;;;;;;8.97;3.60;;;13.10;57.90;;;;;;5085443;28;20182;-91
2021/10/22 11:59:55;;;;;;;10.47;3.10;;;13.20;56.60;;;;;;5064245;28;20226;-90
2021/10/22 12:02:28;;;;;;;6.70;3.10;;;13.40;59.10;;;;;;5061634;28;20184;-91
2021/10/22 12:05:02;;;;;;;9.50;3.37;;;13.40;56.80;;;;;;5062403;28;20189;-90
2021/10/22 12:07:29;;;;;;;4.00;3.10;;;13.70;55.40;;;;;;5078855;28;20186;-90
2021/10/22 12:09:55;;;;;;;8.00;2.93;;;14.00;53.00;;;;;;5097203;28;20251;-91
2021/10/22 12:12:22;;;;;;;9.17;2.97;;;14.30;53.80;;;;;;5080509;28;20186;-92
2021/10/22 12:14:50;;;;;;;5.70;2.90;;;14.40;54.60;;;;;;5080599;28;20209;-91
2021/10/22 12:17:27;;;;;;;5.83;2.77;;;13.80;53.60;;;;;;5081010;28;20177;-90
2021/10/22 12:19:57;;;;;;;10.33;3.60;;;13.00;54.50;;;;;;5081899;28;20228;-90
2021/10/22 12:22:28;;;;;;;8.97;4.77;;;12.90;57.80;;;;;;5081587;28;20178;-90
2021/10/22 12:24:57;;;;;;;7.23;3.20;;;13.50;57.50;;;;;;5081310;28;20209;-91
2021/10/22 12:27:31;;;;;;;6.53;3.13;;;13.80;55.50;;;;;;5064625;28;20195;-91
2021/10/22 12:30:04;;;;;;;7.27;3.10;;;14.20;56.80;;;;;;5081260;28;20240;-91
2021/10/22 12:32:50;;;;;;;8.10;3.93;;;13.90;55.60;;;;;;5081799;28;20189;-91
2021/10/22 12:35:34;;;;;;;6.70;3.43;;;14.30;54.10;;;;;;5083989;28;20323;-91
2021/10/22 12:38:19;;;;;;;5.37;3.30;;;13.90;53.30;;;;;;5099341;28;20567;-91
2021/10/22 12:40:49;;;;;;;7.10;3.27;;;14.30;54.20;;;;;;5098925;28;20541;-91
2021/10/22 12:43:24;;;;;;;4.07;3.13;;;14.10;53.00;;;;;;5081200;28;20235;-91
2021/10/22 12:46:04;;;;;;;7.10;3.33;;;14.10;54.30;;;;;;5081437;28;20189;-90
2021/10/22 12:48:51;;;;;;;5.07;3.17;;;14.20;52.60;;;;;;5048860;28;20193;-91
2021/10/22 12:51:24;;;;;;;7.10;3.03;;;14.20;52.30;;;;;;5078261;28;20215;-90
2021/10/22 12:53:53;;;;;;;5.67;4.00;;;14.60;52.60;;;;;;5061574;28;20186;-91
2021/10/22 12:56:26;;;;;;;6.20;3.30;;;14.80;52.70;;;;;;5082671;28;20183;-91
2021/10/22 12:58:56;;;;;;;8.83;3.60;;;14.80;52.70;;;;;;5063924;28;20188;-90